sensor_id;sensor_type;location;lat;lon;timestamp;temperature;humidity
63013;DHT22;62113;45.624;11.700;2022-12-28T00:00:03;10.80;68.70
63013;DHT22;62113;45.624;11.700;2022-12-28T00:02:29;10.80;68.70
63013;DHT22;62113;45.624;11.700;2022-12-28T00:04:54;10.80;68.60
63013;DHT22;62113;45.624;11.700;2022-12-28T00:07:20;10.70;68.60
63013;DHT22;62113;45.624;11.700;2022-12-28T00:09:45;10.70;68.50
63013;DHT22;62113;45.624;11.700;2022-12-28T00:12:11;10.70;68.60
63013;DHT22;62113;45.624;11.700;2022-12-28T00:14:36;10.70;68.40
63013;DHT22;62113;45.624;11.700;2022-12-28T00:17:02;10.60;68.50
63013;DHT22;62113;45.624;11.700;2022-12-28T00:19:27;10.60;68.50
63013;DHT22;62113;45.624;11.700;2022-12-28T00:21:53;10.50;68.50
63013;DHT22;62113;45.624;11.700;2022-12-28T00:24:19;10.50;68.50
63013;DHT22;62113;45.624;11.700;2022-12-28T00:26:45;10.50;68.50
63013;DHT22;62113;45.624;11.700;2022-12-28T00:29:11;10.40;68.50
63013;DHT22;62113;45.624;11.700;2022-12-28T00:31:36;10.40;68.50
63013;DHT22;62113;45.624;11.700;2022-12-28T00:34:02;10.40;68.50
63013;DHT22;62113;45.624;11.700;2022-12-28T00:36:27;10.40;68.40
63013;DHT22;62113;45.624;11.700;2022-12-28T00:38:53;10.30;68.40
63013;DHT22;62113;45.624;11.700;2022-12-28T00:41:18;10.30;68.40
63013;DHT22;62113;45.624;11.700;2022-12-28T00:43:44;10.30;68.50
63013;DHT22;62113;45.624;11.700;2022-12-28T00:46:10;10.30;68.50
63013;DHT22;62113;45.624;11.700;2022-12-28T00:48:36;10.30;68.50
63013;DHT22;62113;45.624;11.700;2022-12-28T00:51:02;10.30;68.50
63013;DHT22;62113;45.624;11.700;2022-12-28T00:53:28;10.20;68.40
63013;DHT22;62113;45.624;11.700;2022-12-28T00:55:54;10.20;68.40
63013;DHT22;62113;45.624;11.700;2022-12-28T00:58:19;10.20;68.30
63013;DHT22;62113;45.624;11.700;2022-12-28T01:00:45;10.20;68.40
63013;DHT22;62113;45.624;11.700;2022-12-28T01:03:10;10.10;68.40
63013;DHT22;62113;45.624;11.700;2022-12-28T01:05:37;10.10;68.40
63013;DHT22;62113;45.624;11.700;2022-12-28T01:08:03;10.10;68.40
63013;DHT22;62113;45.624;11.700;2022-12-28T01:10:28;10.10;68.40
63013;DHT22;62113;45.624;11.700;2022-12-28T01:12:54;10.10;68.40
63013;DHT22;62113;45.624;11.700;2022-12-28T01:15:19;10.10;68.30
63013;DHT22;62113;45.624;11.700;2022-12-28T01:17:45;10.10;68.20
63013;DHT22;62113;45.624;11.700;2022-12-28T01:20:10;10.10;68.30
63013;DHT22;62113;45.624;11.700;2022-12-28T01:22:36;10.00;68.30
63013;DHT22;62113;45.624;11.700;2022-12-28T01:25:01;10.10;68.30
63013;DHT22;62113;45.624;11.700;2022-12-28T01:27:27;10.00;68.20
63013;DHT22;62113;45.624;11.700;2022-12-28T01:29:52;10.00;68.20
63013;DHT22;62113;45.624;11.700;2022-12-28T01:32:18;10.00;68.20
63013;DHT22;62113;45.624;11.700;2022-12-28T01:34:43;10.00;68.10
63013;DHT22;62113;45.624;11.700;2022-12-28T01:37:09;9.90;68.20
63013;DHT22;62113;45.624;11.700;2022-12-28T01:39:34;10.00;68.00
63013;DHT22;62113;45.624;11.700;2022-12-28T01:42:00;9.90;68.10
63013;DHT22;62113;45.624;11.700;2022-12-28T01:46:52;9.90;68.10
63013;DHT22;62113;45.624;11.700;2022-12-28T01:49:29;9.80;68.00
63013;DHT22;62113;45.624;11.700;2022-12-28T01:54:25;9.80;68.10
63013;DHT22;62113;45.624;11.700;2022-12-28T01:56:51;9.70;68.00
63013;DHT22;62113;45.624;11.700;2022-12-28T01:59:17;9.70;68.00
63013;DHT22;62113;45.624;11.700;2022-12-28T02:01:44;9.70;68.00
63013;DHT22;62113;45.624;11.700;2022-12-28T02:04:09;9.70;68.00
63013;DHT22;62113;45.624;11.700;2022-12-28T02:06:35;9.70;67.90
63013;DHT22;62113;45.624;11.700;2022-12-28T02:09:02;9.70;67.90
63013;DHT22;62113;45.624;11.700;2022-12-28T02:11:29;9.70;68.00
63013;DHT22;62113;45.624;11.700;2022-12-28T02:13:54;9.70;68.00
63013;DHT22;62113;45.624;11.700;2022-12-28T02:16:20;9.60;68.00
63013;DHT22;62113;45.624;11.700;2022-12-28T02:18:46;9.60;67.90
63013;DHT22;62113;45.624;11.700;2022-12-28T02:21:23;9.60;68.00
63013;DHT22;62113;45.624;11.700;2022-12-28T02:24:15;9.50;68.00
63013;DHT22;62113;45.624;11.700;2022-12-28T02:32:24;9.50;67.80
63013;DHT22;62113;45.624;11.700;2022-12-28T02:37:26;9.40;68.00
63013;DHT22;62113;45.624;11.700;2022-12-28T02:40:01;9.40;68.00
63013;DHT22;62113;45.624;11.700;2022-12-28T02:42:27;9.40;68.10
63013;DHT22;62113;45.624;11.700;2022-12-28T02:44:54;9.40;68.10
63013;DHT22;62113;45.624;11.700;2022-12-28T02:47:39;9.40;68.20
63013;DHT22;62113;45.624;11.700;2022-12-28T02:50:25;9.30;68.10
63013;DHT22;62113;45.624;11.700;2022-12-28T02:53:01;9.30;68.10
63013;DHT22;62113;45.624;11.700;2022-12-28T03:01:30;9.30;68.10
63013;DHT22;62113;45.624;11.700;2022-12-28T03:04:18;9.30;68.10
63013;DHT22;62113;45.624;11.700;2022-12-28T03:12:06;9.30;68.10
63013;DHT22;62113;45.624;11.700;2022-12-28T03:14:40;9.30;68.00
63013;DHT22;62113;45.624;11.700;2022-12-28T03:17:07;9.30;68.10
63013;DHT22;62113;45.624;11.700;2022-12-28T03:19:56;9.30;68.00
63013;DHT22;62113;45.624;11.700;2022-12-28T03:22:42;9.30;68.00
63013;DHT22;62113;45.624;11.700;2022-12-28T03:25:28;9.30;68.00
63013;DHT22;62113;45.624;11.700;2022-12-28T03:28:15;9.30;68.00
63013;DHT22;62113;45.624;11.700;2022-12-28T03:31:01;9.30;67.90
63013;DHT22;62113;45.624;11.700;2022-12-28T03:33:35;9.30;67.90
63013;DHT22;62113;45.624;11.700;2022-12-28T03:36:25;9.20;67.90
63013;DHT22;62113;45.624;11.700;2022-12-28T03:41:21;9.20;67.90
63013;DHT22;62113;45.624;11.700;2022-12-28T03:43:49;9.20;67.80
63013;DHT22;62113;45.624;11.700;2022-12-28T03:46:23;9.20;67.90
63013;DHT22;62113;45.624;11.700;2022-12-28T03:48:50;9.20;68.00
63013;DHT22;62113;45.624;11.700;2022-12-28T03:51:18;9.20;68.00
63013;DHT22;62113;45.624;11.700;2022-12-28T03:53:45;9.20;68.00
63013;DHT22;62113;45.624;11.700;2022-12-28T03:56:12;9.20;68.00
63013;DHT22;62113;45.624;11.700;2022-12-28T03:58:39;9.20;68.00
63013;DHT22;62113;45.624;11.700;2022-12-28T04:01:04;9.20;68.00
63013;DHT22;62113;45.624;11.700;2022-12-28T04:03:30;9.20;67.90
63013;DHT22;62113;45.624;11.700;2022-12-28T04:05:56;9.20;68.00
63013;DHT22;62113;45.624;11.700;2022-12-28T04:08:21;9.20;68.00
63013;DHT22;62113;45.624;11.700;2022-12-28T04:10:47;9.20;67.90
63013;DHT22;62113;45.624;11.700;2022-12-28T04:13:12;9.20;68.00
63013;DHT22;62113;45.624;11.700;2022-12-28T04:15:38;9.20;68.00
63013;DHT22;62113;45.624;11.700;2022-12-28T04:18:03;9.20;67.90
63013;DHT22;62113;45.624;11.700;2022-12-28T04:20:29;9.20;68.00
63013;DHT22;62113;45.624;11.700;2022-12-28T04:22:54;9.20;68.00
63013;DHT22;62113;45.624;11.700;2022-12-28T04:25:20;9.20;68.00
63013;DHT22;62113;45.624;11.700;2022-12-28T04:27:45;9.10;68.00
63013;DHT22;62113;45.624;11.700;2022-12-28T04:30:11;9.10;68.00
63013;DHT22;62113;45.624;11.700;2022-12-28T04:32:36;9.10;68.10
63013;DHT22;62113;45.624;11.700;2022-12-28T04:35:02;9.10;68.10
63013;DHT22;62113;45.624;11.700;2022-12-28T04:37:27;9.20;68.10
63013;DHT22;62113;45.624;11.700;2022-12-28T04:39:53;9.20;68.20
63013;DHT22;62113;45.624;11.700;2022-12-28T04:42:18;9.20;68.10
63013;DHT22;62113;45.624;11.700;2022-12-28T04:44:44;9.20;68.10
63013;DHT22;62113;45.624;11.700;2022-12-28T04:47:09;9.20;68.10
63013;DHT22;62113;45.624;11.700;2022-12-28T04:49:35;9.20;68.10
63013;DHT22;62113;45.624;11.700;2022-12-28T04:52:00;9.20;68.10
63013;DHT22;62113;45.624;11.700;2022-12-28T04:54:26;9.20;68.10
63013;DHT22;62113;45.624;11.700;2022-12-28T04:56:51;9.20;68.00
63013;DHT22;62113;45.624;11.700;2022-12-28T04:59:17;9.20;68.10
63013;DHT22;62113;45.624;11.700;2022-12-28T05:01:42;9.20;68.10
63013;DHT22;62113;45.624;11.700;2022-12-28T05:04:08;9.20;68.20
63013;DHT22;62113;45.624;11.700;2022-12-28T05:06:33;9.20;68.20
63013;DHT22;62113;45.624;11.700;2022-12-28T05:08:59;9.20;68.20
63013;DHT22;62113;45.624;11.700;2022-12-28T05:11:26;9.20;68.30
63013;DHT22;62113;45.624;11.700;2022-12-28T05:13:52;9.20;68.30
63013;DHT22;62113;45.624;11.700;2022-12-28T05:16:21;9.30;68.30
63013;DHT22;62113;45.624;11.700;2022-12-28T05:18:47;9.30;68.30
63013;DHT22;62113;45.624;11.700;2022-12-28T05:21:19;9.30;68.30
63013;DHT22;62113;45.624;11.700;2022-12-28T05:23:45;9.40;68.20
63013;DHT22;62113;45.624;11.700;2022-12-28T05:26:12;9.50;68.20
63013;DHT22;62113;45.624;11.700;2022-12-28T05:28:37;9.50;68.00
63013;DHT22;62113;45.624;11.700;2022-12-28T05:31:04;9.50;68.00
63013;DHT22;62113;45.624;11.700;2022-12-28T05:33:31;9.50;68.00
63013;DHT22;62113;45.624;11.700;2022-12-28T05:36:04;9.60;68.00
63013;DHT22;62113;45.624;11.700;2022-12-28T05:38:29;9.60;67.90
63013;DHT22;62113;45.624;11.700;2022-12-28T05:40:55;9.60;68.00
63013;DHT22;62113;45.624;11.700;2022-12-28T05:43:21;9.70;68.00
63013;DHT22;62113;45.624;11.700;2022-12-28T05:45:46;9.70;68.00
63013;DHT22;62113;45.624;11.700;2022-12-28T05:48:12;9.70;68.00
63013;DHT22;62113;45.624;11.700;2022-12-28T05:50:37;9.70;68.00
63013;DHT22;62113;45.624;11.700;2022-12-28T05:53:03;9.70;68.00
63013;DHT22;62113;45.624;11.700;2022-12-28T05:55:29;9.70;68.00
63013;DHT22;62113;45.624;11.700;2022-12-28T05:57:54;9.70;68.00
63013;DHT22;62113;45.624;11.700;2022-12-28T06:00:20;9.70;68.00
63013;DHT22;62113;45.624;11.700;2022-12-28T06:02:46;9.70;67.90
63013;DHT22;62113;45.624;11.700;2022-12-28T06:05:11;9.70;67.90
63013;DHT22;62113;45.624;11.700;2022-12-28T06:07:38;9.70;67.90
63013;DHT22;62113;45.624;11.700;2022-12-28T06:10:04;9.70;67.90
63013;DHT22;62113;45.624;11.700;2022-12-28T06:12:29;9.70;67.90
63013;DHT22;62113;45.624;11.700;2022-12-28T06:14:55;9.70;68.00
63013;DHT22;62113;45.624;11.700;2022-12-28T06:17:20;9.70;68.00
63013;DHT22;62113;45.624;11.700;2022-12-28T06:19:46;9.70;68.00
63013;DHT22;62113;45.624;11.700;2022-12-28T06:22:12;9.70;68.00
63013;DHT22;62113;45.624;11.700;2022-12-28T06:24:37;9.70;68.00
63013;DHT22;62113;45.624;11.700;2022-12-28T06:27:03;9.70;68.00
63013;DHT22;62113;45.624;11.700;2022-12-28T06:29:28;9.70;68.00
63013;DHT22;62113;45.624;11.700;2022-12-28T06:31:54;9.80;68.00
63013;DHT22;62113;45.624;11.700;2022-12-28T06:34:20;9.80;68.10
63013;DHT22;62113;45.624;11.700;2022-12-28T06:36:46;9.80;68.00
63013;DHT22;62113;45.624;11.700;2022-12-28T06:39:14;9.80;68.00
63013;DHT22;62113;45.624;11.700;2022-12-28T06:41:39;9.80;68.00
63013;DHT22;62113;45.624;11.700;2022-12-28T06:44:05;9.80;68.00
63013;DHT22;62113;45.624;11.700;2022-12-28T06:46:31;9.80;68.00
63013;DHT22;62113;45.624;11.700;2022-12-28T06:48:57;9.80;68.00
63013;DHT22;62113;45.624;11.700;2022-12-28T06:51:26;9.80;68.00
63013;DHT22;62113;45.624;11.700;2022-12-28T06:53:52;9.80;68.00
63013;DHT22;62113;45.624;11.700;2022-12-28T06:56:19;9.80;68.10
63013;DHT22;62113;45.624;11.700;2022-12-28T06:58:45;9.80;68.10
63013;DHT22;62113;45.624;11.700;2022-12-28T07:01:12;9.80;68.10
63013;DHT22;62113;45.624;11.700;2022-12-28T07:03:38;9.70;68.20
63013;DHT22;62113;45.624;11.700;2022-12-28T07:06:03;9.70;68.20
63013;DHT22;62113;45.624;11.700;2022-12-28T07:08:29;9.70;68.20
63013;DHT22;62113;45.624;11.700;2022-12-28T07:11:00;9.80;68.20
63013;DHT22;62113;45.624;11.700;2022-12-28T07:13:25;9.70;68.30
63013;DHT22;62113;45.624;11.700;2022-12-28T07:15:51;9.80;68.20
63013;DHT22;62113;45.624;11.700;2022-12-28T07:18:16;9.70;68.20
63013;DHT22;62113;45.624;11.700;2022-12-28T07:20:42;9.80;68.30
63013;DHT22;62113;45.624;11.700;2022-12-28T07:23:07;9.80;68.20
63013;DHT22;62113;45.624;11.700;2022-12-28T07:25:34;9.80;68.20
63013;DHT22;62113;45.624;11.700;2022-12-28T07:27:59;9.80;68.20
63013;DHT22;62113;45.624;11.700;2022-12-28T07:30:25;9.80;68.20
63013;DHT22;62113;45.624;11.700;2022-12-28T07:32:50;9.90;68.20
63013;DHT22;62113;45.624;11.700;2022-12-28T07:35:16;9.90;68.30
63013;DHT22;62113;45.624;11.700;2022-12-28T07:37:41;9.90;68.30
63013;DHT22;62113;45.624;11.700;2022-12-28T07:40:07;10.00;68.30
63013;DHT22;62113;45.624;11.700;2022-12-28T07:42:33;10.00;68.30
63013;DHT22;62113;45.624;11.700;2022-12-28T07:44:58;10.00;68.40
63013;DHT22;62113;45.624;11.700;2022-12-28T07:47:23;10.10;68.30
63013;DHT22;62113;45.624;11.700;2022-12-28T07:49:49;10.20;68.50
63013;DHT22;62113;45.624;11.700;2022-12-28T07:52:15;10.40;68.40
63013;DHT22;62113;45.624;11.700;2022-12-28T07:54:40;10.50;68.10
63013;DHT22;62113;45.624;11.700;2022-12-28T07:57:05;10.70;67.40
63013;DHT22;62113;45.624;11.700;2022-12-28T07:59:31;10.70;67.30
63013;DHT22;62113;45.624;11.700;2022-12-28T08:01:56;10.90;66.70
63013;DHT22;62113;45.624;11.700;2022-12-28T08:04:22;11.10;66.10
63013;DHT22;62113;45.624;11.700;2022-12-28T08:06:47;11.20;66.20
63013;DHT22;62113;45.624;11.700;2022-12-28T08:09:13;11.20;65.80
63013;DHT22;62113;45.624;11.700;2022-12-28T08:11:40;11.30;65.00
63013;DHT22;62113;45.624;11.700;2022-12-28T08:14:06;11.40;65.20
63013;DHT22;62113;45.624;11.700;2022-12-28T08:16:39;11.50;64.50
63013;DHT22;62113;45.624;11.700;2022-12-28T08:19:05;11.60;64.40
63013;DHT22;62113;45.624;11.700;2022-12-28T08:21:32;11.70;64.00
63013;DHT22;62113;45.624;11.700;2022-12-28T08:23:57;11.80;64.30
63013;DHT22;62113;45.624;11.700;2022-12-28T08:26:27;12.00;63.70
63013;DHT22;62113;45.624;11.700;2022-12-28T08:28:54;12.20;63.80
63013;DHT22;62113;45.624;11.700;2022-12-28T08:31:21;12.40;63.70
63013;DHT22;62113;45.624;11.700;2022-12-28T08:33:46;12.50;63.50
63013;DHT22;62113;45.624;11.700;2022-12-28T08:36:12;12.70;62.70
63013;DHT22;62113;45.624;11.700;2022-12-28T08:38:39;12.70;62.20
63013;DHT22;62113;45.624;11.700;2022-12-28T08:41:06;12.70;60.00
63013;DHT22;62113;45.624;11.700;2022-12-28T08:43:32;12.70;60.50
63013;DHT22;62113;45.624;11.700;2022-12-28T08:45:58;12.50;60.00
63013;DHT22;62113;45.624;11.700;2022-12-28T08:48:25;12.40;60.20
63013;DHT22;62113;45.624;11.700;2022-12-28T08:50:50;12.30;60.70
63013;DHT22;62113;45.624;11.700;2022-12-28T08:53:16;12.30;61.10
63013;DHT22;62113;45.624;11.700;2022-12-28T08:55:41;12.20;61.50
63013;DHT22;62113;45.624;11.700;2022-12-28T08:58:07;12.20;61.50
63013;DHT22;62113;45.624;11.700;2022-12-28T09:00:32;12.10;60.40
63013;DHT22;62113;45.624;11.700;2022-12-28T09:02:58;12.00;60.70
63013;DHT22;62113;45.624;11.700;2022-12-28T09:05:23;12.00;61.20
63013;DHT22;62113;45.624;11.700;2022-12-28T09:07:52;12.10;61.10
63013;DHT22;62113;45.624;11.700;2022-12-28T09:10:17;12.20;61.70
63013;DHT22;62113;45.624;11.700;2022-12-28T09:12:43;12.20;61.90
63013;DHT22;62113;45.624;11.700;2022-12-28T09:15:09;12.30;62.10
63013;DHT22;62113;45.624;11.700;2022-12-28T09:17:35;12.50;62.20
63013;DHT22;62113;45.624;11.700;2022-12-28T09:20:00;12.70;62.00
63013;DHT22;62113;45.624;11.700;2022-12-28T09:22:26;12.80;61.80
63013;DHT22;62113;45.624;11.700;2022-12-28T09:24:51;13.10;60.70
63013;DHT22;62113;45.624;11.700;2022-12-28T09:27:17;13.20;60.40
63013;DHT22;62113;45.624;11.700;2022-12-28T09:29:42;13.40;60.60
63013;DHT22;62113;45.624;11.700;2022-12-28T09:32:08;13.60;60.70
63013;DHT22;62113;45.624;11.700;2022-12-28T09:34:33;13.80;60.40
63013;DHT22;62113;45.624;11.700;2022-12-28T09:37:00;14.20;59.80
63013;DHT22;62113;45.624;11.700;2022-12-28T09:39:26;14.40;58.80
63013;DHT22;62113;45.624;11.700;2022-12-28T09:49:37;15.20;57.20
63013;DHT22;62113;45.624;11.700;2022-12-28T09:54:49;15.70;55.00
63013;DHT22;62113;45.624;11.700;2022-12-28T09:57:15;16.00;55.20
63013;DHT22;62113;45.624;11.700;2022-12-28T09:59:42;16.30;53.10
63013;DHT22;62113;45.624;11.700;2022-12-28T10:02:29;16.60;52.70
63013;DHT22;62113;45.624;11.700;2022-12-28T10:04:55;17.00;51.30
63013;DHT22;62113;45.624;11.700;2022-12-28T10:07:20;17.20;49.80
63013;DHT22;62113;45.624;11.700;2022-12-28T10:09:46;17.60;49.00
63013;DHT22;62113;45.624;11.700;2022-12-28T10:12:16;17.90;46.70
63013;DHT22;62113;45.624;11.700;2022-12-28T10:14:44;18.20;45.70
63013;DHT22;62113;45.624;11.700;2022-12-28T10:17:11;18.60;47.10
63013;DHT22;62113;45.624;11.700;2022-12-28T10:19:37;18.90;46.40
63013;DHT22;62113;45.624;11.700;2022-12-28T10:22:04;18.90;45.50
63013;DHT22;62113;45.624;11.700;2022-12-28T10:24:30;19.00;47.50
63013;DHT22;62113;45.624;11.700;2022-12-28T10:26:59;19.00;46.10
63013;DHT22;62113;45.624;11.700;2022-12-28T10:29:25;19.50;44.00
63013;DHT22;62113;45.624;11.700;2022-12-28T10:32:24;18.50;44.70
63013;DHT22;62113;45.624;11.700;2022-12-28T10:34:56;18.80;45.20
63013;DHT22;62113;45.624;11.700;2022-12-28T10:37:22;19.30;45.40
63013;DHT22;62113;45.624;11.700;2022-12-28T10:39:50;19.80;44.30
63013;DHT22;62113;45.624;11.700;2022-12-28T10:42:26;20.20;43.40
63013;DHT22;62113;45.624;11.700;2022-12-28T10:44:56;20.60;42.80
63013;DHT22;62113;45.624;11.700;2022-12-28T10:49:54;20.30;41.80
63013;DHT22;62113;45.624;11.700;2022-12-28T10:52:20;20.10;41.00
63013;DHT22;62113;45.624;11.700;2022-12-28T10:54:45;19.70;40.20
63013;DHT22;62113;45.624;11.700;2022-12-28T10:57:28;19.40;41.30
63013;DHT22;62113;45.624;11.700;2022-12-28T11:02:38;19.00;41.70
63013;DHT22;62113;45.624;11.700;2022-12-28T11:05:04;18.90;41.70
63013;DHT22;62113;45.624;11.700;2022-12-28T11:07:31;18.70;42.50
63013;DHT22;62113;45.624;11.700;2022-12-28T11:10:22;18.70;43.40
63013;DHT22;62113;45.624;11.700;2022-12-28T11:12:44;18.70;44.00
63013;DHT22;62113;45.624;11.700;2022-12-28T11:15:16;18.70;44.30
63013;DHT22;62113;45.624;11.700;2022-12-28T11:17:42;18.70;44.80
63013;DHT22;62113;45.624;11.700;2022-12-28T11:22:37;18.70;45.10
63013;DHT22;62113;45.624;11.700;2022-12-28T11:25:03;18.70;45.80
63013;DHT22;62113;45.624;11.700;2022-12-28T11:27:29;18.70;46.10
63013;DHT22;62113;45.624;11.700;2022-12-28T11:29:55;18.60;46.30
63013;DHT22;62113;45.624;11.700;2022-12-28T11:32:36;18.70;45.50
63013;DHT22;62113;45.624;11.700;2022-12-28T11:35:02;18.70;46.30
63013;DHT22;62113;45.624;11.700;2022-12-28T11:37:28;18.80;46.10
63013;DHT22;62113;45.624;11.700;2022-12-28T11:39:53;18.90;46.10
63013;DHT22;62113;45.624;11.700;2022-12-28T11:45:01;19.00;46.30
63013;DHT22;62113;45.624;11.700;2022-12-28T11:47:28;19.10;46.50
63013;DHT22;62113;45.624;11.700;2022-12-28T11:52:45;19.00;45.80
63013;DHT22;62113;45.624;11.700;2022-12-28T11:57:54;19.00;45.90
63013;DHT22;62113;45.624;11.700;2022-12-28T12:08:01;19.10;46.10
63013;DHT22;62113;45.624;11.700;2022-12-28T12:10:33;19.10;46.20
63013;DHT22;62113;45.624;11.700;2022-12-28T12:12:59;19.10;45.90
63013;DHT22;62113;45.624;11.700;2022-12-28T12:15:33;19.10;45.90
63013;DHT22;62113;45.624;11.700;2022-12-28T12:18:05;19.10;45.60
63013;DHT22;62113;45.624;11.700;2022-12-28T12:20:51;19.10;46.30
63013;DHT22;62113;45.624;11.700;2022-12-28T12:23:19;19.10;46.10
63013;DHT22;62113;45.624;11.700;2022-12-28T12:25:46;19.00;46.50
63013;DHT22;62113;45.624;11.700;2022-12-28T12:30:55;19.00;46.60
63013;DHT22;62113;45.624;11.700;2022-12-28T12:33:25;18.90;46.60
63013;DHT22;62113;45.624;11.700;2022-12-28T12:35:58;18.90;45.90
63013;DHT22;62113;45.624;11.700;2022-12-28T12:43:27;18.50;44.30
63013;DHT22;62113;45.624;11.700;2022-12-28T12:46:10;18.30;44.60
63013;DHT22;62113;45.624;11.700;2022-12-28T12:56:32;17.90;44.60
63013;DHT22;62113;45.624;11.700;2022-12-28T13:04:07;17.70;44.90
63013;DHT22;62113;45.624;11.700;2022-12-28T13:06:38;17.60;44.80
63013;DHT22;62113;45.624;11.700;2022-12-28T13:09:04;17.50;43.80
63013;DHT22;62113;45.624;11.700;2022-12-28T13:11:35;17.30;44.30
63013;DHT22;62113;45.624;11.700;2022-12-28T13:14:02;17.20;45.50
63013;DHT22;62113;45.624;11.700;2022-12-28T13:16:28;17.20;46.00
63013;DHT22;62113;45.624;11.700;2022-12-28T13:18:56;17.10;46.10
63013;DHT22;62113;45.624;11.700;2022-12-28T13:21:22;17.10;45.80
63013;DHT22;62113;45.624;11.700;2022-12-28T13:23:48;17.10;46.20
63013;DHT22;62113;45.624;11.700;2022-12-28T13:26:14;17.10;45.30
63013;DHT22;62113;45.624;11.700;2022-12-28T13:28:59;17.00;45.50
63013;DHT22;62113;45.624;11.700;2022-12-28T13:31:37;17.00;45.70
63013;DHT22;62113;45.624;11.700;2022-12-28T13:34:04;16.90;46.10
63013;DHT22;62113;45.624;11.700;2022-12-28T13:36:30;16.80;46.20
63013;DHT22;62113;45.624;11.700;2022-12-28T13:39:00;16.80;46.20
63013;DHT22;62113;45.624;11.700;2022-12-28T13:41:26;16.80;46.30
63013;DHT22;62113;45.624;11.700;2022-12-28T13:46:17;16.80;46.50
63013;DHT22;62113;45.624;11.700;2022-12-28T13:48:44;16.70;46.50
63013;DHT22;62113;45.624;11.700;2022-12-28T13:51:12;16.70;46.80
63013;DHT22;62113;45.624;11.700;2022-12-28T13:53:38;16.70;46.70
63013;DHT22;62113;45.624;11.700;2022-12-28T13:56:06;16.60;46.70
63013;DHT22;62113;45.624;11.700;2022-12-28T13:58:37;16.60;46.70
63013;DHT22;62113;45.624;11.700;2022-12-28T14:01:06;16.50;46.70
63013;DHT22;62113;45.624;11.700;2022-12-28T14:03:32;16.50;46.80
63013;DHT22;62113;45.624;11.700;2022-12-28T14:06:01;16.50;47.00
63013;DHT22;62113;45.624;11.700;2022-12-28T14:08:28;16.50;46.90
63013;DHT22;62113;45.624;11.700;2022-12-28T14:10:57;16.50;47.30
63013;DHT22;62113;45.624;11.700;2022-12-28T14:13:23;16.50;47.50
63013;DHT22;62113;45.624;11.700;2022-12-28T14:15:49;16.40;46.80
63013;DHT22;62113;45.624;11.700;2022-12-28T14:18:15;16.20;47.10
63013;DHT22;62113;45.624;11.700;2022-12-28T14:21:00;16.20;47.50
63013;DHT22;62113;45.624;11.700;2022-12-28T14:23:29;16.20;47.70
63013;DHT22;62113;45.624;11.700;2022-12-28T14:25:56;16.20;48.00
63013;DHT22;62113;45.624;11.700;2022-12-28T14:30:53;16.20;47.80
63013;DHT22;62113;45.624;11.700;2022-12-28T14:33:20;16.10;47.90
63013;DHT22;62113;45.624;11.700;2022-12-28T14:35:48;16.10;48.30
63013;DHT22;62113;45.624;11.700;2022-12-28T14:38:18;16.10;48.00
63013;DHT22;62113;45.624;11.700;2022-12-28T14:40:47;16.00;48.50
63013;DHT22;62113;45.624;11.700;2022-12-28T14:43:18;16.00;48.10
63013;DHT22;62113;45.624;11.700;2022-12-28T14:45:46;15.90;48.30
63013;DHT22;62113;45.624;11.700;2022-12-28T14:50:54;15.80;48.40
63013;DHT22;62113;45.624;11.700;2022-12-28T14:53:19;15.70;48.50
63013;DHT22;62113;45.624;11.700;2022-12-28T14:58:31;15.70;49.10
63013;DHT22;62113;45.624;11.700;2022-12-28T15:00:59;15.60;49.60
63013;DHT22;62113;45.624;11.700;2022-12-28T15:03:25;15.50;49.70
63013;DHT22;62113;45.624;11.700;2022-12-28T15:05:58;15.40;49.40
63013;DHT22;62113;45.624;11.700;2022-12-28T15:08:26;15.40;49.40
63013;DHT22;62113;45.624;11.700;2022-12-28T15:13:18;15.30;49.70
63013;DHT22;62113;45.624;11.700;2022-12-28T15:15:51;15.20;49.70
63013;DHT22;62113;45.624;11.700;2022-12-28T15:18:16;15.20;49.80
63013;DHT22;62113;45.624;11.700;2022-12-28T15:20:42;15.10;50.00
63013;DHT22;62113;45.624;11.700;2022-12-28T15:23:07;15.00;50.40
63013;DHT22;62113;45.624;11.700;2022-12-28T15:25:33;15.00;50.60
63013;DHT22;62113;45.624;11.700;2022-12-28T15:27:58;14.90;51.40
63013;DHT22;62113;45.624;11.700;2022-12-28T15:30:24;14.80;51.80
63013;DHT22;62113;45.624;11.700;2022-12-28T15:32:50;14.70;52.40
63013;DHT22;62113;45.624;11.700;2022-12-28T15:35:15;14.70;52.30
63013;DHT22;62113;45.624;11.700;2022-12-28T15:37:41;14.60;52.00
63013;DHT22;62113;45.624;11.700;2022-12-28T15:40:07;14.50;52.10
63013;DHT22;62113;45.624;11.700;2022-12-28T15:42:33;14.40;52.80
63013;DHT22;62113;45.624;11.700;2022-12-28T15:44:58;14.30;53.20
63013;DHT22;62113;45.624;11.700;2022-12-28T15:47:24;14.30;53.40
63013;DHT22;62113;45.624;11.700;2022-12-28T15:49:49;14.30;53.50
63013;DHT22;62113;45.624;11.700;2022-12-28T15:52:15;14.20;53.30
63013;DHT22;62113;45.624;11.700;2022-12-28T15:54:40;14.20;54.20
63013;DHT22;62113;45.624;11.700;2022-12-28T15:57:06;14.10;53.80
63013;DHT22;62113;45.624;11.700;2022-12-28T15:59:31;14.10;54.70
63013;DHT22;62113;45.624;11.700;2022-12-28T16:01:57;14.00;54.40
63013;DHT22;62113;45.624;11.700;2022-12-28T16:04:22;14.00;54.40
63013;DHT22;62113;45.624;11.700;2022-12-28T16:06:48;13.90;55.20
63013;DHT22;62113;45.624;11.700;2022-12-28T16:09:13;13.90;55.30
63013;DHT22;62113;45.624;11.700;2022-12-28T16:11:39;13.80;55.10
63013;DHT22;62113;45.624;11.700;2022-12-28T16:14:06;13.70;55.30
63013;DHT22;62113;45.624;11.700;2022-12-28T16:16:35;13.70;55.60
63013;DHT22;62113;45.624;11.700;2022-12-28T16:19:01;13.60;55.50
63013;DHT22;62113;45.624;11.700;2022-12-28T16:21:27;13.50;55.70
63013;DHT22;62113;45.624;11.700;2022-12-28T16:23:53;13.40;55.60
63013;DHT22;62113;45.624;11.700;2022-12-28T16:26:19;13.40;56.00
63013;DHT22;62113;45.624;11.700;2022-12-28T16:28:45;13.30;56.90
63013;DHT22;62113;45.624;11.700;2022-12-28T16:33:45;13.20;57.90
63013;DHT22;62113;45.624;11.700;2022-12-28T16:36:11;13.20;57.00
63013;DHT22;62113;45.624;11.700;2022-12-28T16:38:36;13.10;57.70
63013;DHT22;62113;45.624;11.700;2022-12-28T16:41:02;13.10;58.10
63013;DHT22;62113;45.624;11.700;2022-12-28T16:43:27;13.00;57.40
63013;DHT22;62113;45.624;11.700;2022-12-28T16:45:53;13.00;57.60
63013;DHT22;62113;45.624;11.700;2022-12-28T16:48:18;13.00;57.50
63013;DHT22;62113;45.624;11.700;2022-12-28T16:50:44;13.00;57.50
63013;DHT22;62113;45.624;11.700;2022-12-28T16:53:09;12.90;57.50
63013;DHT22;62113;45.624;11.700;2022-12-28T16:55:39;12.90;57.50
63013;DHT22;62113;45.624;11.700;2022-12-28T16:58:05;12.80;57.60
63013;DHT22;62113;45.624;11.700;2022-12-28T17:00:30;12.80;57.70